Time;durP1;ratioP1;P1;durP2;ratioP2;P2;SDS_P1;SDS_P2;PMS_P1;PMS_P2;Temp;Humidity;BMP_temperature;BMP_pressure;BME280_temperature;BME280_humidity;BME280_pressure;Samples;Min_cycle;Max_cycle;Signal;HPM_P1;HPM_P2
2022/04/03 00:01:22;;;;;;;4.57;4.32;;;;;;;-1.65;100.00;102359.41;5211501;28;20025;-82
2022/04/03 00:03:52;;;;;;;5.78;5.28;;;;;;;-1.60;100.00;102363.31;5193457;28;20032;-81
2022/04/03 00:06:23;;;;;;;4.70;4.50;;;;;;;-1.57;100.00;102352.44;5212451;28;20111;-81
2022/04/03 00:08:55;;;;;;;5.10;4.82;;;;;;;-1.74;100.00;102329.31;5193274;28;20306;-81
2022/04/03 00:11:27;;;;;;;9.55;4.90;;;;;;;-1.79;100.00;102327.06;5210967;28;20027;-81
2022/04/03 00:13:58;;;;;;;6.25;4.85;;;;;;;-1.74;100.00;102345.19;5193225;28;20028;-81
2022/04/03 00:16:29;;;;;;;5.40;5.03;;;;;;;-1.71;100.00;102355.50;5210739;28;20021;-82
2022/04/03 00:19:00;;;;;;;5.95;5.55;;;;;;;-1.86;100.00;102341.00;5193781;28;20075;-82
2022/04/03 00:21:32;;;;;;;5.15;4.85;;;;;;;-2.14;100.00;102301.13;5211472;28;20031;-81
2022/04/03 00:24:03;;;;;;;5.28;4.97;;;;;;;-2.02;100.00;102320.34;5211865;28;20021;-81
2022/04/03 00:26:33;;;;;;;6.22;5.20;;;;;;;-2.06;100.00;102327.75;5212110;28;20037;-82
2022/04/03 00:29:04;;;;;;;6.55;6.07;;;;;;;-1.99;100.00;102356.31;5211925;28;20366;-82
2022/04/03 00:31:35;;;;;;;6.38;5.88;;;;;;;-2.25;100.00;102309.19;5211211;28;20034;-82
2022/04/03 00:34:05;;;;;;;4.47;4.25;;;;;;;-1.92;100.00;102355.63;5211329;28;20079;-82
2022/04/03 00:36:35;;;;;;;6.32;5.75;;;;;;;-2.03;100.00;102349.63;5194339;28;20025;-82
2022/04/03 00:39:06;;;;;;;4.50;4.30;;;;;;;-2.34;100.00;102322.41;5212092;28;20108;-82
2022/04/03 00:41:38;;;;;;;8.65;5.30;;;;;;;-2.27;100.00;102348.16;5211849;28;20030;-82
2022/04/03 00:44:09;;;;;;;5.82;5.28;;;;;;;-2.17;100.00;102354.34;5211730;28;20081;-81
2022/04/03 00:46:40;;;;;;;6.78;6.10;;;;;;;-2.14;100.00;102356.72;5212308;28;20081;-82
2022/04/03 00:49:10;;;;;;;5.38;4.97;;;;;;;-2.22;100.00;102343.31;5211799;28;20032;-81
2022/04/03 00:51:41;;;;;;;7.20;6.75;;;;;;;-2.11;100.00;102364.38;5211511;28;20028;-81
2022/04/03 00:54:12;;;;;;;5.55;5.15;;;;;;;-2.45;100.00;102316.25;5210842;28;20056;-80
2022/04/03 00:56:42;;;;;;;5.53;5.22;;;;;;;-2.25;100.00;102356.81;5210635;28;20109;-81
2022/04/03 00:59:14;;;;;;;10.75;5.97;;;;;;;-2.33;100.00;102348.75;5210671;28;20455;-81
2022/04/03 01:01:45;;;;;;;6.00;5.60;;;;;;;-2.56;100.00;102328.75;5209157;28;20397;-80
2022/04/03 01:04:15;;;;;;;5.22;4.93;;;;;;;-2.45;100.00;102363.03;5210044;28;20060;-81
2022/04/03 01:06:46;;;;;;;5.43;5.13;;;;;;;-2.58;100.00;102351.84;5210299;28;20025;-81
2022/04/03 01:09:16;;;;;;;5.70;5.43;;;;;;;-2.75;100.00;102343.56;5214374;28;20029;-81
2022/04/03 01:11:46;;;;;;;5.63;5.22;;;;;;;-2.67;100.00;102348.19;5196570;28;20508;-80
2022/04/03 01:14:45;;;;;;;5.25;4.93;;;;;;;-2.70;100.00;102358.22;5214124;28;20281;-82
2022/04/03 01:17:16;;;;;;;6.68;6.07;;;;;;;-3.02;100.00;102308.94;5214457;28;20564;-81
2022/04/03 01:19:46;;;;;;;8.43;6.75;;;;;;;-2.95;100.00;102317.19;5196070;28;20101;-80
2022/04/03 01:22:16;;;;;;;5.97;5.60;;;;;;;-2.88;100.00;102348.22;5214860;28;20085;-80
2022/04/03 01:24:47;;;;;;;5.93;5.18;;;;;;;-2.94;100.00;102350.59;5214993;28;20025;-81
2022/04/03 01:27:17;;;;;;;5.90;5.53;;;;;;;-2.99;100.00;102347.50;5214278;28;20025;-81
2022/04/03 01:29:49;;;;;;;4.97;4.70;;;;;;;-3.32;100.00;102308.94;5214948;28;20032;-81
2022/04/03 01:32:20;;;;;;;5.90;5.53;;;;;;;-3.03;100.00;102364.56;5196962;28;20022;-82
2022/04/03 01:34:51;;;;;;;5.70;5.32;;;;;;;-3.35;100.00;102307.38;5215048;28;20270;-82
2022/04/03 01:37:21;;;;;;;8.43;5.63;;;;;;;-3.41;100.00;102311.38;5215134;28;20029;-80
2022/04/03 01:39:51;;;;;;;5.82;5.43;;;;;;;-3.17;100.00;102347.25;5213300;28;20064;-81
2022/04/03 01:42:22;;;;;;;5.47;5.18;;;;;;;-3.24;100.00;102351.38;5215060;28;20120;-81
2022/04/03 01:44:52;;;;;;;7.05;5.88;;;;;;;-3.33;100.00;102352.16;5214612;28;20481;-81
2022/04/03 01:47:23;;;;;;;7.47;6.05;;;;;;;-3.50;100.00;102354.41;5214775;28;20428;-80
2022/04/03 01:49:53;;;;;;;5.30;4.95;;;;;;;-4.01;100.00;102309.38;5213079;28;20037;-78
2022/04/03 01:52:23;;;;;;;5.03;4.72;;;;;;;-3.78;100.00;102345.31;5212292;28;20025;-80
2022/04/03 01:54:54;;;;;;;6.38;5.88;;;;;;;-4.01;100.00;102305.91;5213517;28;20036;-80
2022/04/03 01:57:24;;;;;;;5.57;5.28;;;;;;;-4.40;100.00;102255.47;5214087;28;20056;-80
2022/04/03 01:59:55;;;;;;;6.10;5.70;;;;;;;-4.29;100.00;102267.75;5214710;28;20481;-83
2022/04/03 02:02:53;;;;;;;6.82;6.43;;;;;;;-3.84;100.00;102350.25;5213226;28;20573;-80
2022/04/03 02:05:23;;;;;;;10.27;6.70;;;;;;;-3.90;100.00;102346.28;5214525;28;20065;-80
2022/04/03 02:07:53;;;;;;;6.97;6.07;;;;;;;-4.11;100.00;102309.31;5213970;28;20072;-82
2022/04/03 02:10:24;;;;;;;5.10;4.90;;;;;;;-3.95;100.00;102334.44;5196892;28;20379;-82
2022/04/03 02:12:54;;;;;;;6.07;5.72;;;;;;;-4.16;100.00;102315.91;5215131;28;20413;-82
2022/04/03 02:15:25;;;;;;;5.20;4.93;;;;;;;-4.35;100.00;102284.94;5215057;28;20079;-82
2022/04/03 02:17:55;;;;;;;5.45;5.07;;;;;;;-4.12;100.00;102331.38;5213712;28;20021;-82
2022/04/03 02:20:26;;;;;;;6.13;5.82;;;;;;;-4.17;100.00;102341.47;5229697;28;20024;-81
2022/04/03 02:22:56;;;;;;;7.43;5.93;;;;;;;-4.33;100.00;102319.91;5228084;28;20093;-83
2022/04/03 02:25:28;;;;;;;5.53;4.95;;;;;;;-4.27;100.00;102345.78;5209433;28;20021;-82
2022/04/03 02:28:01;;;;;;;6.28;5.95;;;;;;;-4.45;100.00;102315.63;5218066;28;20021;-82
2022/04/03 02:30:32;;;;;;;6.07;5.78;;;;;;;-4.55;100.00;102296.22;5215082;28;20493;-82
2022/04/03 02:33:02;;;;;;;6.10;5.82;;;;;;;-4.22;100.00;102335.72;5214032;28;20083;-82
2022/04/03 02:35:33;;;;;;;4.95;4.57;;;;;;;-4.23;100.00;102335.84;5213972;28;20077;-82
2022/04/03 02:38:03;;;;;;;6.25;5.88;;;;;;;-4.25;100.00;102343.03;5214437;28;20057;-82
2022/04/03 02:40:34;;;;;;;6.50;6.10;;;;;;;-4.27;100.00;102343.16;5196359;28;20113;-82
2022/04/03 02:43:05;;;;;;;5.43;4.97;;;;;;;-4.34;100.00;102334.06;5213819;28;20030;-82
2022/04/03 02:45:35;;;;;;;6.88;6.47;;;;;;;-4.38;100.00;102331.81;5213930;28;20025;-82
2022/04/03 02:48:06;;;;;;;5.20;4.97;;;;;;;-4.55;100.00;102304.13;5214593;28;20033;-82
2022/04/03 02:50:37;;;;;;;5.90;5.63;;;;;;;-4.73;100.00;102289.78;5195839;28;20029;-81
2022/04/03 02:53:07;;;;;;;6.43;6.13;;;;;;;-4.51;100.00;102342.47;5213564;28;20032;-81
2022/04/03 02:55:37;;;;;;;7.15;6.72;;;;;;;-4.72;100.00;102312.56;5213779;28;20060;-81
2022/04/03 02:58:08;;;;;;;6.93;6.53;;;;;;;-4.56;100.00;102334.09;5196074;28;20454;-81
2022/04/03 03:00:38;;;;;;;7.35;6.93;;;;;;;-4.54;100.00;102326.91;5214220;28;20401;-81
2022/04/03 03:03:09;;;;;;;6.63;6.03;;;;;;;-4.62;100.00;102310.88;5196636;28;20519;-83
2022/04/03 03:05:41;;;;;;;6.20;5.97;;;;;;;-4.42;100.00;102341.75;5214356;28;20025;-81
2022/04/03 03:08:11;;;;;;;8.85;8.05;;;;;;;-4.41;100.00;102338.16;5213811;28;20067;-81
2022/04/03 03:10:42;;;;;;;6.25;5.85;;;;;;;-4.42;100.00;102336.47;5214417;28;20469;-80
2022/04/03 03:13:12;;;;;;;6.28;5.88;;;;;;;-4.43;100.00;102345.34;5213283;28;20384;-79
2022/04/03 03:15:43;;;;;;;7.63;7.13;;;;;;;-4.51;100.00;102339.84;5214217;28;20029;-80
2022/04/03 03:18:13;;;;;;;11.15;7.07;;;;;;;-4.56;100.00;102342.00;5216075;28;20029;-82
2022/04/03 03:20:44;;;;;;;7.38;6.93;;;;;;;-4.67;100.00;102331.47;5217221;28;20025;-81
2022/04/03 03:23:14;;;;;;;8.32;7.72;;;;;;;-4.81;100.00;102325.47;5215924;28;20081;-81
2022/04/03 03:25:45;;;;;;;7.15;6.70;;;;;;;-4.90;100.00;102294.56;5198526;28;20470;-81
2022/04/03 03:28:15;;;;;;;7.70;7.20;;;;;;;-4.62;100.00;102339.88;5217082;28;20116;-81
2022/04/03 03:30:46;;;;;;;7.53;7.03;;;;;;;-4.77;100.00;102321.66;5215134;28;20029;-81
2022/04/03 03:33:16;;;;;;;6.50;6.10;;;;;;;-4.57;100.00;102343.78;5215854;28;20029;-81
2022/04/03 03:35:47;;;;;;;6.90;6.43;;;;;;;-4.52;100.00;102362.72;5214350;28;20017;-82
2022/04/03 03:38:17;;;;;;;7.22;6.70;;;;;;;-4.73;100.00;102321.41;5213017;28;20087;-82
2022/04/03 03:40:48;;;;;;;6.72;6.32;;;;;;;-4.73;100.00;102326.69;5212959;28;20096;-81
2022/04/03 03:43:18;;;;;;;7.97;6.85;;;;;;;-4.68;100.00;102325.38;5213390;28;20025;-82
2022/04/03 03:45:49;;;;;;;5.32;5.03;;;;;;;-4.41;100.00;102348.69;5212573;28;20025;-82
2022/04/03 03:48:19;;;;;;;6.00;5.70;;;;;;;-4.43;100.00;102334.81;5212890;28;20021;-82
2022/04/03 03:50:49;;;;;;;7.32;6.35;;;;;;;-4.35;100.00;102347.38;5195132;28;20029;-82
2022/04/03 03:53:20;;;;;;;7.28;6.78;;;;;;;-4.33;100.00;102356.00;5212530;28;20036;-82
2022/04/03 03:55:50;;;;;;;5.55;5.20;;;;;;;-4.55;100.00;102326.06;5212372;28;20421;-82
2022/04/03 03:58:21;;;;;;;5.93;5.50;;;;;;;-4.45;100.00;102349.91;5194555;28;20025;-81
2022/04/03 04:00:51;;;;;;;5.65;5.35;;;;;;;-4.47;100.00;102365.00;5218396;28;20060;-81
2022/04/03 04:03:22;;;;;;;6.55;6.25;;;;;;;-4.62;100.00;102342.50;5207684;28;20047;-81
2022/04/03 04:05:52;;;;;;;6.15;5.25;;;;;;;-4.52;100.00;102362.72;5226844;28;20116;-80
2022/04/03 04:08:22;;;;;;;6.78;6.15;;;;;;;-4.86;100.00;102305.72;5225597;28;20089;-82
2022/04/03 04:10:53;;;;;;;7.35;6.85;;;;;;;-4.63;100.00;102356.63;5225498;28;20476;-82
2022/04/03 04:13:24;;;;;;;6.80;6.15;;;;;;;-4.56;100.00;102371.84;5225136;28;20026;-81
2022/04/03 04:18:30;;;;;;;7.35;6.93;;;;;;;-4.62;100.00;102366.22;5178817;28;20061;-82
2022/04/03 04:21:02;;;;;;;7.03;5.57;;;;;;;-4.80;100.00;102361.41;5168530;28;20022;-82
2022/04/03 04:23:32;;;;;;;6.43;6.00;;;;;;;-4.91;100.00;102342.97;5173500;28;20108;-81
2022/04/03 04:26:03;;;;;;;7.00;6.55;;;;;;;-4.82;100.00;102360.69;5190420;28;20022;-82
2022/04/03 04:28:34;;;;;;;5.68;5.35;;;;;;;-4.73;100.00;102371.47;5189789;28;20033;-82
2022/04/03 04:31:04;;;;;;;5.95;5.55;;;;;;;-4.77;100.00;102384.91;5229116;23;20510;-57
2022/04/03 04:33:35;;;;;;;7.65;6.95;;;;;;;-4.88;100.00;102376.97;5176440;28;20025;-58
2022/04/03 04:36:07;;;;;;;6.78;6.45;;;;;;;-4.88;100.00;102378.75;5166549;28;20042;-58
2022/04/03 04:38:37;;;;;;;8.05;6.57;;;;;;;-4.91;100.00;102386.94;5166492;28;20026;-59
2022/04/03 04:41:08;;;;;;;6.55;6.18;;;;;;;-4.95;100.00;102382.84;5167067;28;20116;-58
2022/04/03 04:43:38;;;;;;;7.35;6.88;;;;;;;-5.08;100.00;102364.50;5169878;28;20025;-58
2022/04/03 04:46:09;;;;;;;14.05;8.20;;;;;;;-4.99;100.00;102389.31;5170105;28;20034;-58
2022/04/03 04:48:39;;;;;;;7.03;6.63;;;;;;;-5.08;100.00;102390.84;5170409;28;20026;-57
2022/04/03 04:51:09;;;;;;;6.75;6.35;;;;;;;-5.13;100.00;102383.28;5170446;28;20411;-57
2022/04/03 04:53:40;;;;;;;8.38;7.68;;;;;;;-5.11;100.00;102396.34;5169544;28;20336;-57
2022/04/03 04:56:12;;;;;;;7.20;6.80;;;;;;;-5.15;100.00;102395.72;5187778;28;20077;-57
2022/04/03 04:58:42;;;;;;;7.82;6.47;;;;;;;-5.17;100.00;102395.00;5170292;28;20030;-58
2022/04/03 05:01:13;;;;;;;5.95;5.72;;;;;;;-5.21;100.00;102395.38;5169899;28;20045;-58
2022/04/03 05:03:43;;;;;;;6.47;6.07;;;;;;;-5.20;100.00;102407.59;5169458;28;20391;-58
2022/04/03 05:06:15;;;;;;;8.10;7.50;;;;;;;-5.21;100.00;102409.38;5169913;28;20415;-58
2022/04/03 05:08:46;;;;;;;5.70;5.50;;;;;;;-5.28;100.00;102395.00;5169891;28;20539;-58
2022/04/03 05:11:16;;;;;;;7.43;6.65;;;;;;;-5.24;100.00;102404.34;5169996;28;20125;-58
2022/04/03 05:13:47;;;;;;;7.43;6.93;;;;;;;-5.26;100.00;102395.72;5169499;28;20025;-58
2022/04/03 05:16:18;;;;;;;5.93;5.53;;;;;;;-5.19;100.00;102406.59;5177731;28;20033;-58
2022/04/03 05:18:48;;;;;;;6.32;6.00;;;;;;;-5.18;100.00;102410.91;5189816;28;20025;-58
2022/04/03 05:21:19;;;;;;;7.45;6.85;;;;;;;-5.22;100.00;102410.34;5185614;28;20068;-58
2022/04/03 05:23:49;;;;;;;6.30;5.88;;;;;;;-5.25;100.00;102399.19;5169242;28;20395;-58
2022/04/03 05:26:20;;;;;;;7.45;6.90;;;;;;;-5.64;100.00;102331.94;5174896;28;20124;-57
2022/04/03 05:28:50;;;;;;;7.38;6.93;;;;;;;-5.25;100.00;102394.75;5189800;28;20041;-58
2022/04/03 05:31:21;;;;;;;8.40;7.55;;;;;;;-5.18;100.00;102400.38;5189491;28;20026;-58
2022/04/03 05:33:51;;;;;;;8.80;6.75;;;;;;;-5.12;100.00;102411.31;5189203;28;20025;-58
2022/04/03 05:36:22;;;;;;;7.88;7.32;;;;;;;-5.11;100.00;102418.25;5206168;28;20028;-58
2022/04/03 05:38:53;;;;;;;8.48;7.78;;;;;;;-5.06;100.00;102412.63;5205945;28;20081;-58
2022/04/03 05:41:24;;;;;;;8.35;7.30;;;;;;;-5.03;100.00;102408.94;5205785;28;20136;-61
2022/04/03 05:43:54;;;;;;;6.95;6.53;;;;;;;-4.98;100.00;102417.34;5189011;28;20026;-59
2022/04/03 05:46:25;;;;;;;7.38;6.88;;;;;;;-4.92;100.00;102422.97;5188886;28;20036;-58
2022/04/03 05:48:55;;;;;;;7.90;6.90;;;;;;;-4.88;100.00;102419.13;5189414;28;20032;-59
2022/04/03 05:51:26;;;;;;;8.00;7.35;;;;;;;-4.78;100.00;102432.44;5205848;28;20023;-59
2022/04/03 05:53:57;;;;;;;6.35;6.05;;;;;;;-4.70;100.00;102423.97;5205228;28;20024;-58
2022/04/03 05:56:27;;;;;;;8.32;7.72;;;;;;;-4.73;100.00;102411.84;5188859;28;20109;-58
2022/04/03 05:58:58;;;;;;;10.93;8.40;;;;;;;-4.58;100.00;102426.47;5204958;28;20463;-58
2022/04/03 06:01:29;;;;;;;6.88;6.47;;;;;;;-4.54;100.00;102420.00;5202694;28;20036;-57
2022/04/03 06:04:00;;;;;;;7.72;7.43;;;;;;;-4.50;100.00;102428.50;5201589;28;20029;-58
2022/04/03 06:06:30;;;;;;;7.95;7.15;;;;;;;-4.45;100.00;102429.00;5186047;28;20080;-58
2022/04/03 06:09:00;;;;;;;9.25;8.38;;;;;;;-4.33;100.00;102422.75;5204315;28;20021;-56
2022/04/03 06:11:31;;;;;;;6.43;6.07;;;;;;;-4.22;100.00;102424.53;5189104;28;20041;-58
2022/04/03 06:14:01;;;;;;;8.02;7.45;;;;;;;-4.12;100.00;102428.97;5186666;28;20037;-58
2022/04/03 06:16:32;;;;;;;7.25;6.75;;;;;;;-4.02;100.00;102430.88;5188072;28;20021;-58
2022/04/03 06:19:03;;;;;;;7.70;7.22;;;;;;;-4.00;100.00;102410.47;5205403;28;20470;-59
2022/04/03 06:21:33;;;;;;;7.65;7.18;;;;;;;-3.91;100.00;102420.31;5188951;28;20017;-58
2022/04/03 06:24:04;;;;;;;7.55;7.13;;;;;;;-3.71;100.00;102430.06;5206454;28;20483;-59
2022/04/03 06:26:35;;;;;;;9.80;9.05;;;;;;;-3.63;100.00;102425.03;5205445;28;20041;-59
2022/04/03 06:29:05;;;;;;;9.48;7.70;;;;;;;-3.53;100.00;102428.59;5188668;28;20453;-58
2022/04/03 06:31:36;;;;;;;8.13;7.63;;;;;;;-3.50;100.00;102420.44;5206106;28;20028;-59
2022/04/03 06:34:06;;;;;;;9.70;8.55;;;;;;;-3.34;100.00;102435.00;5205651;28;20026;-59
2022/04/03 06:36:37;;;;;;;18.48;9.18;;;;;;;-3.22;100.00;102441.91;5188656;28;20029;-59
2022/04/03 06:39:07;;;;;;;10.05;9.10;;;;;;;-3.13;100.00;102443.78;5206249;28;20057;-59
2022/04/03 06:41:38;;;;;;;8.77;8.27;;;;;;;-2.99;100.00;102450.56;5188326;28;20116;-63
2022/04/03 06:44:08;;;;;;;9.93;9.23;;;;;;;-2.90;100.00;102445.34;5204511;28;20036;-59
2022/04/03 06:46:39;;;;;;;10.40;8.82;;;;;;;-2.70;100.00;102448.94;5188207;28;20517;-59
2022/04/03 06:49:09;;;;;;;10.88;9.98;;;;;;;-2.61;100.00;102437.59;5204801;28;20045;-60
2022/04/03 06:51:40;;;;;;;9.15;8.55;;;;;;;-2.48;100.00;102437.34;5188069;28;20032;-58
2022/04/03 06:54:10;;;;;;;8.93;8.32;;;;;;;-2.31;100.00;102439.38;5187632;28;20028;-59
2022/04/03 06:56:40;;;;;;;11.68;10.70;;;;;;;-2.03;100.00;102440.47;5204563;28;20027;-58
2022/04/03 06:59:11;;;;;;;10.15;9.13;;;;;;;-1.82;100.00;102445.66;5188128;28;20079;-59
2022/04/03 07:01:41;;;;;;;8.88;8.27;;;;;;;-1.64;100.00;102441.38;5204746;28;20021;-58
2022/04/03 07:04:12;;;;;;;8.00;7.55;;;;;;;-1.46;100.00;102439.72;5187031;28;20025;-59
2022/04/03 07:06:42;;;;;;;14.30;9.82;;;;;;;-1.36;100.00;102443.19;5204473;28;20029;-59
2022/04/03 07:09:13;;;;;;;8.75;8.15;;;;;;;-1.31;100.00;102431.34;5187879;28;20029;-59
2022/04/03 07:11:44;;;;;;;8.82;8.30;;;;;;;-1.16;100.00;102440.56;5187572;28;20029;-58
2022/04/03 07:14:14;;;;;;;10.05;9.43;;;;;;;-1.05;100.00;102443.03;5187249;28;20498;-59
2022/04/03 07:16:45;;;;;;;9.02;8.25;;;;;;;-0.92;100.00;102453.38;5187684;28;20629;-59
2022/04/03 07:19:15;;;;;;;9.02;8.52;;;;;;;-0.87;100.00;102437.88;5187450;28;20123;-59
2022/04/03 07:21:46;;;;;;;8.75;8.25;;;;;;;-0.72;100.00;102442.56;5204266;28;20116;-59
2022/04/03 07:24:17;;;;;;;7.38;6.80;;;;;;;-0.58;100.00;102446.59;5187295;28;20017;-59
2022/04/03 07:26:47;;;;;;;12.52;8.20;;;;;;;-0.47;100.00;102442.91;5187677;28;20037;-59
2022/04/03 07:29:18;;;;;;;7.15;6.53;;;;;;;-0.40;100.00;102433.41;5187637;28;20125;-59
2022/04/03 07:31:49;;;;;;;6.57;6.18;;;;;;;-0.17;100.00;102434.69;5187377;28;20037;-59
2022/04/03 07:34:20;;;;;;;5.90;5.47;;;;;;;0.08;100.00;102446.44;5187086;28;20155;-59
2022/04/03 07:36:51;;;;;;;6.15;5.85;;;;;;;0.27;100.00;102449.00;5184330;28;20050;-59
2022/04/03 07:39:22;;;;;;;5.38;5.07;;;;;;;0.46;100.00;102448.03;5167229;28;20028;-59
2022/04/03 07:41:53;;;;;;;5.88;5.57;;;;;;;0.63;100.00;102460.47;5167250;28;20034;-58
2022/04/03 07:44:24;;;;;;;7.88;5.93;;;;;;;0.81;100.00;102446.34;5166789;28;20030;-58
2022/04/03 07:46:54;;;;;;;5.55;5.25;;;;;;;0.89;100.00;102444.59;5167439;28;20391;-59
2022/04/03 07:49:25;;;;;;;6.10;5.72;;;;;;;0.93;100.00;102455.75;5167000;28;20073;-58
2022/04/03 07:51:55;;;;;;;5.53;5.20;;;;;;;1.10;100.00;102454.91;5166881;28;20402;-58
2022/04/03 07:54:26;;;;;;;5.97;5.53;;;;;;;1.18;100.00;102449.63;5166420;28;20491;-59
2022/04/03 07:56:56;;;;;;;5.97;5.43;;;;;;;1.30;100.00;102451.06;5184645;28;20042;-59
2022/04/03 07:59:27;;;;;;;4.63;4.43;;;;;;;1.25;100.00;102434.72;5199624;28;20145;-58
2022/04/03 08:01:57;;;;;;;4.25;4.03;;;;;;;1.47;100.00;102448.47;5166582;28;20041;-57
2022/04/03 08:04:28;;;;;;;4.22;4.03;;;;;;;1.71;100.00;102451.31;5166327;28;20022;-59
2022/04/03 08:06:59;;;;;;;3.80;3.60;;;;;;;1.85;100.00;102456.03;5183108;28;20037;-57
2022/04/03 08:09:30;;;;;;;4.25;4.00;;;;;;;2.09;100.00;102452.63;5166910;28;20033;-56
2022/04/03 08:12:01;;;;;;;4.18;3.97;;;;;;;2.37;100.00;102455.84;5182874;28;20029;-58
2022/04/03 08:14:31;;;;;;;4.85;3.90;;;;;;;2.56;100.00;102452.91;5165858;28;20088;-59
2022/04/03 08:17:02;;;;;;;5.45;3.88;;;;;;;2.59;100.00;102433.09;5170257;28;20029;-56
2022/04/03 08:19:32;;;;;;;3.83;3.20;;;;;;;2.91;100.00;102450.94;5188287;28;20022;-58
2022/04/03 08:22:03;;;;;;;3.85;3.45;;;;;;;3.14;100.00;102446.59;5170592;28;20029;-55
2022/04/03 08:24:33;;;;;;;3.20;2.72;;;;;;;3.38;100.00;102448.41;5170285;28;20026;-58
2022/04/03 08:27:04;;;;;;;3.20;3.00;;;;;;;3.51;100.00;102455.88;5170728;28;20173;-57
2022/04/03 08:29:34;;;;;;;5.53;3.97;;;;;;;3.71;100.00;102454.50;5170407;28;20029;-58
2022/04/03 08:32:05;;;;;;;3.25;3.15;;;;;;;3.88;100.00;102452.59;5170549;28;20117;-58
2022/04/03 08:34:36;;;;;;;3.80;3.47;;;;;;;4.09;100.00;102450.16;5173318;28;20034;-58
2022/04/03 08:37:07;;;;;;;3.17;2.75;;;;;;;4.12;100.00;102446.31;5205998;28;20498;-56
2022/04/03 08:39:37;;;;;;;3.08;2.97;;;;;;;4.44;100.00;102456.00;5187796;28;20033;-56
2022/04/03 08:42:10;;;;;;;4.03;3.75;;;;;;;4.61;100.00;102455.72;5189205;28;20063;-57
2022/04/03 08:44:41;;;;;;;3.05;2.92;;;;;;;4.78;100.00;102455.59;5189427;28;20064;-58
2022/04/03 08:47:15;;;;;;;4.18;3.53;;;;;;;4.95;100.00;102460.63;5188573;28;20060;-57
2022/04/03 08:49:47;;;;;;;3.53;3.28;;;;;;;4.96;100.00;102448.09;5187495;28;20087;-58
2022/04/03 08:52:18;;;;;;;4.00;2.92;;;;;;;5.06;100.00;102457.53;5190776;28;20024;-58
2022/04/03 08:54:49;;;;;;;3.88;3.58;;;;;;;5.07;100.00;102451.19;5190578;28;20033;-58
2022/04/03 08:57:20;;;;;;;2.85;2.72;;;;;;;5.26;100.00;102457.84;5190519;28;20029;-58
2022/04/03 08:59:54;;;;;;;3.17;2.45;;;;;;;5.43;100.00;102464.75;5190607;28;20025;-58
2022/04/03 09:02:24;;;;;;;2.92;2.72;;;;;;;5.45;96.42;102467.25;5190560;28;20099;-59
2022/04/03 09:04:55;;;;;;;2.72;2.63;;;;;;;5.38;95.01;102468.97;5190574;28;20025;-59
2022/04/03 09:07:25;;;;;;;3.42;3.22;;;;;;;5.55;94.97;102469.63;5190739;28;20045;-59
2022/04/03 09:09:58;;;;;;;3.67;3.38;;;;;;;5.50;93.95;102454.09;5208724;28;20036;-58
2022/04/03 09:12:28;;;;;;;3.97;3.42;;;;;;;5.32;92.89;102467.84;5187419;28;20076;-60
2022/04/03 09:14:59;;;;;;;3.38;3.17;;;;;;;5.18;94.50;102460.63;5183995;28;20029;-59
2022/04/03 09:17:42;;;;;;;3.95;3.38;;;;;;;5.43;95.19;102469.28;5169797;28;20451;-58
2022/04/03 09:20:18;;;;;;;3.08;2.97;;;;;;;5.70;93.28;102471.31;5184923;28;20518;-58
2022/04/03 09:22:51;;;;;;;5.57;3.15;;;;;;;5.91;93.05;102456.38;5170332;28;20038;-58
2022/04/03 09:25:29;;;;;;;3.10;2.95;;;;;;;6.03;89.72;102461.09;5170035;28;20044;-59
2022/04/03 09:28:02;;;;;;;3.35;3.15;;;;;;;6.25;89.08;102447.72;5169310;28;20057;-60
2022/04/03 09:30:37;;;;;;;3.78;3.58;;;;;;;6.47;85.95;102449.41;5169487;28;20030;-63
2022/04/03 09:33:10;;;;;;;3.85;3.45;;;;;;;6.60;86.55;102448.75;5169267;28;20030;-59
2022/04/03 09:35:56;;;;;;;3.33;3.13;;;;;;;6.79;84.60;102440.03;5169545;28;20033;-60
2022/04/03 09:38:27;;;;;;;3.33;3.03;;;;;;;6.71;82.46;102442.84;5186235;28;20026;-60
2022/04/03 09:40:59;;;;;;;3.47;3.28;;;;;;;6.52;80.69;102438.94;5186077;28;20491;-58
2022/04/03 09:43:38;;;;;;;2.90;2.80;;;;;;;6.37;81.71;102432.78;5185310;28;20026;-59
2022/04/03 09:46:13;;;;;;;4.15;3.55;;;;;;;6.52;82.94;102438.94;5169482;28;20121;-59
2022/04/03 09:48:43;;;;;;;4.03;3.72;;;;;;;6.19;81.30;102410.91;5169172;28;20026;-59
2022/04/03 09:51:19;;;;;;;3.40;3.20;;;;;;;6.71;85.84;102421.38;5169212;28;20026;-60
2022/04/03 09:53:58;;;;;;;3.58;3.38;;;;;;;6.95;81.70;102414.75;5185002;28;20018;-59
2022/04/03 09:56:31;;;;;;;3.08;2.88;;;;;;;7.04;82.58;102418.97;5169035;28;20034;-59
2022/04/03 09:59:07;;;;;;;2.50;2.40;;;;;;;7.33;81.29;102415.25;5185312;28;20024;-60
2022/04/03 10:01:40;;;;;;;3.20;3.00;;;;;;;7.27;76.03;102424.94;5185654;28;20025;-59
2022/04/03 10:04:14;;;;;;;2.85;2.67;;;;;;;7.18;73.75;102414.53;5168750;28;20029;-59
2022/04/03 10:06:45;;;;;;;2.33;2.22;;;;;;;7.29;71.23;102405.94;5185401;28;20040;-58
2022/04/03 10:09:16;;;;;;;3.03;2.78;;;;;;;7.54;70.32;102406.28;5185379;28;20554;-60
2022/04/03 10:11:47;;;;;;;4.75;2.47;;;;;;;7.76;70.26;102397.13;5168726;28;20034;-60
2022/04/03 10:14:20;;;;;;;2.58;2.47;;;;;;;8.03;70.65;102393.50;5168667;28;20026;-59
2022/04/03 10:16:51;;;;;;;4.97;2.72;;;;;;;7.60;65.39;102389.38;5168705;28;20152;-58
2022/04/03 10:19:21;;;;;;;3.55;2.22;;;;;;;7.57;66.84;102408.56;5168971;28;20492;-58
2022/04/03 10:21:56;;;;;;;2.40;2.30;;;;;;;7.66;69.07;102396.66;5168327;28;20032;-59
2022/04/03 10:24:29;;;;;;;2.60;2.50;;;;;;;7.94;69.27;102377.72;5168094;28;20113;-58
2022/04/03 10:27:14;;;;;;;4.53;2.63;;;;;;;8.05;64.47;102378.00;5168357;28;20121;-58
2022/04/03 10:29:48;;;;;;;2.15;2.15;;;;;;;8.47;68.69;102386.81;5168547;28;20025;-59
2022/04/03 10:32:27;;;;;;;2.60;2.40;;;;;;;8.81;67.96;102369.66;5167537;28;20037;-59
2022/04/03 10:35:09;;;;;;;2.10;1.88;;;;;;;8.94;61.47;102371.53;5168090;28;20164;-61
2022/04/03 10:37:42;;;;;;;2.72;2.53;;;;;;;9.16;64.31;102370.25;5168136;28;20037;-59
2022/04/03 10:40:17;;;;;;;2.20;2.10;;;;;;;9.48;61.72;102357.72;5184258;28;20029;-60
2022/04/03 10:43:02;;;;;;;2.88;2.28;;;;;;;9.22;63.72;102355.94;5168261;28;20081;-58
2022/04/03 10:45:32;;;;;;;2.53;2.35;;;;;;;9.38;64.67;102349.25;5168248;28;20377;-59
2022/04/03 10:48:27;;;;;;;2.95;2.85;;;;;;;8.64;59.77;102350.38;5184166;28;20080;-59
2022/04/03 10:51:09;;;;;;;3.65;3.45;;;;;;;8.68;61.22;102356.16;5168431;28;20088;-59
2022/04/03 10:53:42;;;;;;;2.50;2.40;;;;;;;8.96;58.96;102342.47;5167068;28;20372;-59
2022/04/03 10:56:28;;;;;;;2.42;2.22;;;;;;;9.06;58.33;102354.50;5185057;28;20487;-59
2022/04/03 10:58:58;;;;;;;2.03;1.92;;;;;;;9.17;59.07;102354.91;5253070;22;20041;-80
2022/04/03 11:01:31;;;;;;;2.75;2.65;;;;;;;8.78;59.79;102337.72;5224720;28;20021;-80
2022/04/03 11:04:07;;;;;;;6.70;2.78;;;;;;;8.87;61.50;102343.75;5212722;28;20032;-80
2022/04/03 11:06:39;;;;;;;2.03;2.00;;;;;;;8.77;56.34;102344.97;5208880;28;20108;-80
2022/04/03 11:09:24;;;;;;;2.22;2.13;;;;;;;8.85;58.43;102353.91;5219960;28;20040;-80
2022/04/03 11:11:57;;;;;;;2.30;2.20;;;;;;;8.73;57.27;102338.34;5226790;28;20101;-81
2022/04/03 11:14:55;;;;;;;2.35;2.30;;;;;;;8.62;59.22;102349.75;5227272;28;20098;-80
2022/04/03 11:17:48;;;;;;;2.45;2.35;;;;;;;8.92;58.90;102336.69;5226964;28;20082;-79
2022/04/03 11:20:29;;;;;;;2.35;2.25;;;;;;;8.49;58.22;102249.31;5209688;28;20028;-79
2022/04/03 11:23:01;;;;;;;2.08;1.98;;;;;;;9.24;59.08;102340.34;5233165;28;20508;-81
2022/04/03 11:25:32;;;;;;;2.25;2.20;;;;;;;9.68;60.25;102341.47;5217586;28;20036;-82
2022/04/03 11:28:03;;;;;;;2.13;2.03;;;;;;;9.31;57.80;102284.56;5211125;28;20119;-82
2022/04/03 11:30:35;;;;;;;2.58;2.47;;;;;;;9.61;57.66;102321.78;5227802;28;20445;-82
2022/04/03 11:33:06;;;;;;;5.75;1.95;;;;;;;9.18;56.24;102295.41;5196598;28;20018;-83
2022/04/03 11:35:41;;;;;;;2.33;2.22;;;;;;;9.05;56.75;102295.41;5215489;28;20028;-84
2022/04/03 11:38:11;;;;;;;2.80;2.70;;;;;;;9.00;57.20;102296.03;5215251;28;20079;-86
2022/04/03 11:40:42;;;;;;;2.20;2.10;;;;;;;8.86;56.08;102299.81;5218123;28;20112;-86
2022/04/03 11:43:19;;;;;;;2.25;2.20;;;;;;;8.92;57.15;102292.75;5221855;28;20120;-82
2022/04/03 11:45:58;;;;;;;1.75;1.75;;;;;;;9.13;55.56;102316.75;5219081;28;20481;-86